Archival Weather

NSFA McMurdo Sound

NSFA McMurdo Sound, Antarctica (NZCM)

Report from: Friday, September 23, 2022 2:55 PM UTC
Current time: Sunday, December 4, 2022 11:31 AM UTC

Current weather
Weather history
Weather forecast

Present weatherHaze
Temperature-18.9°C (-2.0°F)
Wind chill-28.7°C (-19.6°F)
Dew point-23.4°C (-10.1°F)
Winds 10 kts (5.1 m/s, 11.5 mph) East-Southeast (120°)
Wind gusts 15 kts (7.7 m/s, 17.3 mph)
Visibility1.1 mi. (1.7 km)
Clouds Ceiling: Overcast 1,200 ft. (366 m)
Altimeter28.63 in.Hg (970 mB)
Precip. events Snow ended 1:57 PM
Snow began 1:59 PM
Snow ended 2:23 PM
Snow began 2:33 PM
Snow ended 2:47 PM
Relative humidity67 %
Density altitude-2,765 ft. (-843 m)
Sea-level pressure107.0 kPa (1070 mB, 31.60 in.Hg)
Remarks Fully automated report
System requires maintenance
Automated weather observing station with precipitation discriminator
Pressure rising more quickly
Flight conditions Instrument Meteorological Conditions
Raw dataNZCM 231455Z AUTO 12010G15KT 1700 HZ OVC012 M19/M23 A2863 RMK AO2 WSHFT 1414 SNE1357B1359E1423B1433E1447 SLP700 T11891234 53003 $
An error has occurred. This application may no longer respond until reloaded. Reload 🗙